createdAt,value
2017-12-26T00:00:57.418Z,-0.92
2017-12-26T00:01:58.194Z,-0.93
2017-12-26T00:02:59.114Z,-0.97
2017-12-26T00:03:57.333Z,-1
2017-12-26T00:04:57.422Z,-1.04
2017-12-26T00:05:57.443Z,-0.99
2017-12-26T00:06:57.488Z,-0.98
2017-12-26T00:07:57.574Z,-0.97
2017-12-26T00:08:57.298Z,-1
2017-12-26T00:09:57.359Z,-1.08
2017-12-26T00:10:57.462Z,-1.08
2017-12-26T00:11:57.403Z,-1.1
2017-12-26T00:12:57.419Z,-1.05
2017-12-26T00:13:57.740Z,-1.06
2017-12-26T00:14:57.340Z,-1.04
2017-12-26T00:15:57.383Z,-1.02
2017-12-26T00:16:57.380Z,-1.04
2017-12-26T00:17:58.137Z,-0.99
2017-12-26T00:18:57.505Z,-1
2017-12-26T00:19:57.441Z,-1.03
2017-12-26T00:20:57.344Z,-0.99
2017-12-26T00:21:57.510Z,-0.98
2017-12-26T00:22:57.452Z,-1.03
2017-12-26T00:23:57.317Z,-1.02
2017-12-26T00:24:57.341Z,-1
2017-12-26T00:25:57.665Z,-1.01
2017-12-26T00:26:57.440Z,-1.04
2017-12-26T00:27:57.450Z,-1.05
2017-12-26T00:28:57.428Z,-1.09
2017-12-26T00:29:57.409Z,-1.14
2017-12-26T00:30:57.412Z,-1.16
2017-12-26T00:31:57.386Z,-1.18
2017-12-26T00:32:57.401Z,-1.28
2017-12-26T00:33:57.417Z,-1.25
2017-12-26T00:34:57.255Z,-1.25
2017-12-26T00:35:57.310Z,-1.25
2017-12-26T00:36:57.505Z,-1.36
2017-12-26T00:37:57.335Z,-1.29
2017-12-26T00:38:57.494Z,-1.24
2017-12-26T00:39:57.420Z,-1.18
2017-12-26T00:40:57.356Z,-1.16
2017-12-26T00:41:57.577Z,-1.21
2017-12-26T00:42:57.501Z,-1.18
2017-12-26T00:43:57.322Z,-1.17
2017-12-26T00:44:57.357Z,-1.19
2017-12-26T00:45:57.443Z,-1.18
2017-12-26T00:46:57.405Z,-1.16
2017-12-26T00:47:57.434Z,-1.1
2017-12-26T00:48:57.419Z,-1.03
2017-12-26T00:49:57.472Z,-0.97
2017-12-26T00:50:57.423Z,-1.03
2017-12-26T00:51:57.432Z,-0.95
2017-12-26T00:52:57.393Z,-0.96
2017-12-26T00:53:57.456Z,-1.02
2017-12-26T00:54:57.382Z,-0.99
2017-12-26T00:55:57.390Z,-0.96
2017-12-26T00:56:57.480Z,-1
2017-12-26T00:57:57.322Z,-0.96
2017-12-26T00:58:57.684Z,-0.96
2017-12-26T00:59:57.291Z,-1.05
2017-12-26T01:00:57.378Z,-0.99
2017-12-26T01:01:57.483Z,-1.03
2017-12-26T01:02:57.428Z,-1.03
2017-12-26T01:03:57.395Z,-1.04
2017-12-26T01:04:57.358Z,-1
2017-12-26T01:05:57.342Z,-0.93
2017-12-26T01:06:57.328Z,-0.97
2017-12-26T01:07:57.368Z,-0.97
2017-12-26T01:08:57.329Z,-0.96
2017-12-26T01:09:57.640Z,-0.94
2017-12-26T01:10:57.586Z,-0.95
2017-12-26T01:11:57.438Z,-0.9
2017-12-26T01:12:57.431Z,-0.84
2017-12-26T01:13:57.347Z,-0.83
2017-12-26T01:14:57.569Z,-0.89
2017-12-26T01:15:57.670Z,-0.88
2017-12-26T01:16:57.520Z,-0.87
2017-12-26T01:17:57.323Z,-0.88
2017-12-26T01:18:57.431Z,-0.8
2017-12-26T01:19:57.399Z,-0.85
2017-12-26T01:20:57.350Z,-0.86
2017-12-26T01:21:57.369Z,-0.85
2017-12-26T01:22:57.471Z,-0.88
2017-12-26T01:23:57.514Z,-0.86
2017-12-26T01:24:57.355Z,-0.84
2017-12-26T01:25:57.410Z,-0.82
2017-12-26T01:26:57.375Z,-0.88
2017-12-26T01:27:57.470Z,-0.89
2017-12-26T01:28:57.424Z,-0.87
2017-12-26T01:29:57.474Z,-0.88
2017-12-26T01:30:57.436Z,-0.83
2017-12-26T01:31:57.434Z,-0.86
2017-12-26T01:32:57.350Z,-0.87
2017-12-26T01:33:57.438Z,-0.86
2017-12-26T01:34:57.670Z,-0.85
2017-12-26T01:35:57.459Z,-0.95
2017-12-26T01:36:57.380Z,-0.86
2017-12-26T01:37:57.319Z,-0.93
2017-12-26T01:38:57.486Z,-0.87
2017-12-26T01:39:57.442Z,-0.96
2017-12-26T01:40:57.505Z,-0.95
2017-12-26T01:41:57.420Z,-1.03
2017-12-26T01:42:57.378Z,-1.11
2017-12-26T01:43:57.578Z,-0.99
2017-12-26T01:44:57.487Z,-0.96
2017-12-26T01:45:57.438Z,-0.93
2017-12-26T01:46:57.403Z,-0.91
2017-12-26T01:47:57.537Z,-1
2017-12-26T01:48:57.380Z,-0.97
2017-12-26T01:49:57.505Z,-0.93
2017-12-26T01:50:57.395Z,-0.98
2017-12-26T01:51:57.471Z,-0.95
2017-12-26T01:52:57.818Z,-1.06
2017-12-26T01:53:57.507Z,-0.97
2017-12-26T01:54:57.461Z,-1.06
2017-12-26T01:55:57.370Z,-1.03
2017-12-26T01:56:57.409Z,-1.07
2017-12-26T01:57:57.455Z,-0.95
2017-12-26T01:58:57.406Z,-0.95
2017-12-26T01:59:57.493Z,-0.92
2017-12-26T02:00:57.511Z,-0.91
2017-12-26T02:01:57.374Z,-0.95
2017-12-26T02:02:57.404Z,-0.9
2017-12-26T02:03:57.458Z,-0.96
2017-12-26T02:04:57.807Z,-1
2017-12-26T02:05:57.424Z,-0.97
2017-12-26T02:06:57.380Z,-1.05
2017-12-26T02:07:57.359Z,-1.08
2017-12-26T02:08:57.404Z,-1.06
2017-12-26T02:09:57.430Z,-1.1
2017-12-26T02:10:57.686Z,-1.12
2017-12-26T02:11:57.493Z,-1.11
2017-12-26T02:12:57.431Z,-1.08
2017-12-26T02:13:57.392Z,-1.12
2017-12-26T02:14:57.460Z,-1.08
2017-12-26T02:15:57.493Z,-1.08
2017-12-26T02:16:57.547Z,-1.04
2017-12-26T02:17:57.384Z,-1.07
2017-12-26T02:18:57.316Z,-1.11
2017-12-26T02:19:57.509Z,-1.03
2017-12-26T02:20:57.550Z,-1.03
2017-12-26T02:21:57.541Z,-1.02
2017-12-26T02:22:57.667Z,-1.04
2017-12-26T02:23:57.551Z,-1.03
2017-12-26T02:24:57.412Z,-0.98
2017-12-26T02:25:57.394Z,-0.99
2017-12-26T02:26:57.471Z,-0.96
2017-12-26T02:27:57.535Z,-1
2017-12-26T02:28:57.758Z,-1
2017-12-26T02:29:57.522Z,-0.97
2017-12-26T02:30:57.689Z,-0.96
2017-12-26T02:31:57.471Z,-1.02
2017-12-26T02:32:57.376Z,-1.03
2017-12-26T02:33:57.616Z,-0.94
2017-12-26T02:34:57.579Z,-0.96
2017-12-26T02:35:57.505Z,-0.99
2017-12-26T02:36:57.451Z,-0.99
2017-12-26T02:37:57.425Z,-0.99
2017-12-26T02:38:57.403Z,-0.99
2017-12-26T02:39:57.428Z,-0.98
2017-12-26T02:40:57.595Z,-1.04
2017-12-26T02:41:57.515Z,-0.96
2017-12-26T02:42:57.458Z,-1.02
2017-12-26T02:43:57.520Z,-0.97
2017-12-26T02:44:57.503Z,-1.02
2017-12-26T02:45:57.626Z,-0.93
2017-12-26T02:46:57.689Z,-1.01
2017-12-26T02:47:57.532Z,-0.89
2017-12-26T02:48:57.515Z,-0.93
2017-12-26T02:49:57.483Z,-0.89
2017-12-26T02:50:57.632Z,-0.87
2017-12-26T02:51:57.508Z,-0.83
2017-12-26T02:52:57.503Z,-0.85
2017-12-26T02:53:57.536Z,-0.82
2017-12-26T02:54:57.477Z,-0.8
2017-12-26T02:55:57.609Z,-0.78
2017-12-26T02:56:57.517Z,-0.83
2017-12-26T02:57:57.484Z,-0.88
2017-12-26T02:58:57.470Z,-0.87
2017-12-26T02:59:57.489Z,-0.86
2017-12-26T03:00:57.496Z,-0.87
2017-12-26T03:01:57.496Z,-0.87
2017-12-26T03:02:57.843Z,-0.9
2017-12-26T03:03:57.446Z,-1.03
2017-12-26T03:04:57.522Z,-1.01
2017-12-26T03:05:57.616Z,-0.98
2017-12-26T03:06:57.460Z,-1.1
2017-12-26T03:07:57.485Z,-1.1
2017-12-26T03:08:57.426Z,-1.05
2017-12-26T03:09:57.479Z,-1.12
2017-12-26T03:10:57.686Z,-0.99
2017-12-26T03:11:57.470Z,-1.14
2017-12-26T03:12:57.499Z,-1.05
2017-12-26T03:13:57.559Z,-1.18
2017-12-26T03:14:57.493Z,-1.25
2017-12-26T03:15:57.622Z,-1.34
2017-12-26T03:16:57.514Z,-1.18
2017-12-26T03:17:57.549Z,-1.23
2017-12-26T03:18:57.490Z,-1.3
2017-12-26T03:19:57.532Z,-1.25
2017-12-26T03:20:57.631Z,-1.23
2017-12-26T03:21:57.577Z,-1.25
2017-12-26T03:22:57.456Z,-1.19
2017-12-26T03:23:57.472Z,-1.24
2017-12-26T03:24:57.544Z,-1.19
2017-12-26T03:25:57.539Z,-1.21
2017-12-26T03:28:57.753Z,-1.19
2017-12-26T03:29:57.449Z,-1.22
2017-12-26T03:30:57.493Z,-1.25
2017-12-26T03:31:58.008Z,-1.21
2017-12-26T03:32:57.673Z,-1.08
2017-12-26T03:33:57.531Z,-1.12
2017-12-26T03:34:57.538Z,-1.1
2017-12-26T03:35:57.679Z,-1.11
2017-12-26T03:36:57.596Z,-1.15
2017-12-26T03:37:57.534Z,-1.1
2017-12-26T03:38:57.603Z,-1.12
2017-12-26T03:39:57.582Z,-1.1
2017-12-26T03:40:57.457Z,-1.14
2017-12-26T03:41:57.507Z,-1.11
2017-12-26T03:42:57.455Z,-1.09
2017-12-26T03:43:57.562Z,-1.03
2017-12-26T03:44:57.637Z,-1.08
2017-12-26T03:45:57.640Z,-1.1
2017-12-26T03:46:57.865Z,-1.08
2017-12-26T03:47:57.596Z,-1.01
2017-12-26T03:48:57.572Z,-0.99
2017-12-26T03:49:57.707Z,-0.96
2017-12-26T03:50:57.647Z,-0.93
2017-12-26T03:51:57.640Z,-0.94
2017-12-26T03:52:57.795Z,-0.92
2017-12-26T03:53:57.724Z,-0.97
2017-12-26T03:54:57.629Z,-0.97
2017-12-26T03:55:57.631Z,-0.92
2017-12-26T03:56:57.453Z,-0.95
2017-12-26T03:57:57.642Z,-0.98
2017-12-26T03:58:57.746Z,-0.91
2017-12-26T03:59:57.610Z,-0.91
2017-12-26T04:00:57.543Z,-0.88
2017-12-26T04:01:57.531Z,-0.89
2017-12-26T04:02:57.613Z,-0.88
2017-12-26T04:03:57.737Z,-0.9
2017-12-26T04:04:57.594Z,-0.83
2017-12-26T04:05:57.588Z,-0.9
2017-12-26T04:06:57.556Z,-0.84
2017-12-26T04:07:57.770Z,-0.92
2017-12-26T04:08:57.587Z,-0.89
2017-12-26T04:09:57.588Z,-0.95
2017-12-26T04:10:57.772Z,-0.93
2017-12-26T04:11:57.682Z,-0.96
2017-12-26T04:12:57.624Z,-0.97
2017-12-26T04:13:57.666Z,-0.92
2017-12-26T04:14:57.722Z,-0.93
2017-12-26T04:15:57.637Z,-0.95
2017-12-26T04:16:57.606Z,-0.94
2017-12-26T04:17:57.564Z,-0.93
2017-12-26T04:18:57.688Z,-1.01
2017-12-26T04:19:57.663Z,-0.98
2017-12-26T04:20:57.551Z,-0.94
2017-12-26T04:21:57.585Z,-0.96
2017-12-26T04:22:57.587Z,-0.91
2017-12-26T04:23:57.717Z,-0.9
2017-12-26T04:24:57.632Z,-0.85
2017-12-26T04:25:57.663Z,-0.89
2017-12-26T04:26:57.713Z,-0.88
2017-12-26T04:27:57.674Z,-0.89
2017-12-26T04:28:57.622Z,-0.83
2017-12-26T04:29:57.646Z,-0.8
2017-12-26T04:30:57.749Z,-0.85
2017-12-26T04:31:57.648Z,-0.76
2017-12-26T04:32:57.679Z,-0.77
2017-12-26T04:33:57.803Z,-0.86
2017-12-26T04:34:57.518Z,-0.87
2017-12-26T04:35:57.655Z,-0.89
2017-12-26T04:36:57.587Z,-0.93
2017-12-26T04:37:57.619Z,-1.01
2017-12-26T04:38:57.725Z,-0.97
2017-12-26T04:39:57.671Z,-0.92
2017-12-26T04:40:57.612Z,-0.86
2017-12-26T04:41:57.711Z,-0.91
2017-12-26T04:42:57.655Z,-0.81
2017-12-26T04:43:57.590Z,-0.82
2017-12-26T04:44:57.666Z,-0.84
2017-12-26T04:45:58.003Z,-0.91
2017-12-26T04:46:57.712Z,-0.82
2017-12-26T04:47:57.693Z,-0.81
2017-12-26T04:48:57.674Z,-0.78
2017-12-26T04:49:57.752Z,-0.71
2017-12-26T04:50:57.695Z,-0.85
2017-12-26T04:51:57.827Z,-0.82
2017-12-26T04:52:57.651Z,-0.8
2017-12-26T04:53:57.622Z,-0.78
2017-12-26T04:54:57.693Z,-0.75
2017-12-26T04:55:57.650Z,-0.69
2017-12-26T04:56:57.773Z,-0.76
2017-12-26T04:57:57.719Z,-0.8
2017-12-26T04:58:57.712Z,-0.62
2017-12-26T04:59:57.729Z,-0.67
2017-12-26T05:00:57.572Z,-0.61
2017-12-26T05:01:57.572Z,-0.57
2017-12-26T05:02:57.650Z,-0.58
2017-12-26T05:03:57.789Z,-0.62
2017-12-26T05:04:57.834Z,-0.54
2017-12-26T05:05:57.683Z,-0.54
2017-12-26T05:06:57.608Z,-0.57
2017-12-26T05:07:57.684Z,-0.53
2017-12-26T05:08:57.613Z,-0.43
2017-12-26T05:09:57.757Z,-0.46
2017-12-26T05:10:57.732Z,-0.48
2017-12-26T05:11:57.955Z,-0.49
2017-12-26T05:12:57.741Z,-0.44
2017-12-26T05:13:57.750Z,-0.53
2017-12-26T05:14:57.564Z,-0.48
2017-12-26T05:15:57.773Z,-0.48
2017-12-26T05:16:57.662Z,-0.49
2017-12-26T05:17:57.725Z,-0.47
2017-12-26T05:18:57.661Z,-0.48
2017-12-26T05:19:57.706Z,-0.45
2017-12-26T05:20:57.665Z,-0.47
2017-12-26T05:21:57.731Z,-0.51
2017-12-26T05:22:57.761Z,-0.45
2017-12-26T05:23:57.630Z,-0.43
2017-12-26T05:24:57.712Z,-0.45
2017-12-26T05:25:57.713Z,-0.48
2017-12-26T05:26:57.611Z,-0.47
2017-12-26T05:27:57.843Z,-0.48
2017-12-26T05:28:57.652Z,-0.49
2017-12-26T05:29:57.592Z,-0.5
2017-12-26T05:30:57.665Z,-0.44
2017-12-26T05:31:57.760Z,-0.53
2017-12-26T05:32:57.689Z,-0.49
2017-12-26T05:33:57.704Z,-0.54
2017-12-26T05:34:57.678Z,-0.52
2017-12-26T05:35:57.660Z,-0.5
2017-12-26T05:36:57.720Z,-0.54
2017-12-26T05:37:57.746Z,-0.49
2017-12-26T05:38:57.618Z,-0.48
2017-12-26T05:39:57.658Z,-0.51
2017-12-26T05:40:57.736Z,-0.45
2017-12-26T05:41:57.704Z,-0.39
2017-12-26T05:42:57.607Z,-0.41
2017-12-26T05:43:57.836Z,-0.39
2017-12-26T05:44:57.722Z,-0.41
2017-12-26T05:45:57.692Z,-0.42
2017-12-26T05:46:57.666Z,-0.4
2017-12-26T05:47:57.667Z,-0.44
2017-12-26T05:48:57.759Z,-0.36
2017-12-26T05:49:57.711Z,-0.35
2017-12-26T05:50:57.833Z,-0.36
2017-12-26T05:51:57.728Z,-0.38
2017-12-26T05:52:57.703Z,-0.37
2017-12-26T05:53:57.744Z,-0.31
2017-12-26T05:54:57.793Z,-0.33
2017-12-26T05:55:57.801Z,-0.27
2017-12-26T05:56:57.683Z,-0.33
2017-12-26T05:57:57.670Z,-0.28
2017-12-26T05:58:57.743Z,-0.25
2017-12-26T05:59:57.688Z,-0.21
2017-12-26T06:00:57.689Z,-0.24
2017-12-26T06:01:57.987Z,-0.24
2017-12-26T06:02:57.694Z,-0.26
2017-12-26T06:03:57.803Z,-0.24
2017-12-26T06:04:57.692Z,-0.23
2017-12-26T06:05:57.679Z,-0.19
2017-12-26T06:06:57.652Z,-0.21
2017-12-26T06:07:57.715Z,-0.2
2017-12-26T06:08:57.714Z,-0.25
2017-12-26T06:09:57.934Z,-0.25
2017-12-26T06:10:57.757Z,-0.27
2017-12-26T06:11:57.700Z,-0.26
2017-12-26T06:12:57.839Z,-0.29
2017-12-26T06:13:57.736Z,-0.25
2017-12-26T06:14:57.769Z,-0.28
2017-12-26T06:15:57.773Z,-0.26
2017-12-26T06:16:57.770Z,-0.26
2017-12-26T06:17:57.751Z,-0.29
2017-12-26T06:18:57.857Z,-0.28
2017-12-26T06:19:57.857Z,-0.3
2017-12-26T06:20:57.632Z,-0.26
2017-12-26T06:21:57.849Z,-0.32
2017-12-26T06:22:57.859Z,-0.31
2017-12-26T06:23:57.682Z,-0.23
2017-12-26T06:24:57.762Z,-0.25
2017-12-26T06:25:57.819Z,-0.27
2017-12-26T06:26:57.825Z,-0.29
2017-12-26T06:27:57.823Z,-0.27
2017-12-26T06:28:57.606Z,-0.3
2017-12-26T06:29:57.787Z,-0.3
2017-12-26T06:30:57.805Z,-0.27
2017-12-26T06:31:57.861Z,-0.3
2017-12-26T06:32:57.635Z,-0.27
2017-12-26T06:33:57.878Z,-0.23
2017-12-26T06:34:57.733Z,-0.21
2017-12-26T06:35:57.755Z,-0.23
2017-12-26T06:36:57.788Z,-0.2
2017-12-26T06:37:57.803Z,-0.24
2017-12-26T06:38:57.772Z,-0.24
2017-12-26T06:39:57.813Z,-0.21
2017-12-26T06:40:57.742Z,-0.19
2017-12-26T06:41:57.824Z,-0.18
2017-12-26T06:42:57.780Z,-0.23
2017-12-26T06:43:57.661Z,-0.22
2017-12-26T06:44:57.755Z,-0.19
2017-12-26T06:45:57.660Z,-0.17
2017-12-26T06:46:57.605Z,-0.15
2017-12-26T06:47:57.718Z,-0.15
2017-12-26T06:48:57.809Z,-0.15
2017-12-26T06:49:57.830Z,-0.18
2017-12-26T06:50:57.784Z,-0.19
2017-12-26T06:51:57.861Z,-0.25
2017-12-26T06:52:57.748Z,-0.24
2017-12-26T06:53:57.747Z,-0.18
2017-12-26T06:54:57.870Z,-0.19
2017-12-26T06:55:57.661Z,-0.24
2017-12-26T06:56:57.779Z,-0.22
2017-12-26T06:57:57.798Z,-0.3
2017-12-26T06:58:57.680Z,-0.32
2017-12-26T06:59:58.066Z,-0.28
2017-12-26T07:00:57.763Z,-0.25
2017-12-26T07:01:57.800Z,-0.25
2017-12-26T07:02:57.766Z,-0.22
2017-12-26T07:03:57.790Z,-0.18
2017-12-26T07:04:57.795Z,-0.22
2017-12-26T07:05:57.708Z,-0.18
2017-12-26T07:06:57.700Z,-0.16
2017-12-26T07:07:57.813Z,-0.17
2017-12-26T07:08:57.831Z,-0.13
2017-12-26T07:09:57.765Z,-0.07
2017-12-26T07:10:57.743Z,-0.15
2017-12-26T07:11:57.770Z,-0.15
2017-12-26T07:12:57.694Z,-0.14
2017-12-26T07:13:57.811Z,-0.12
2017-12-26T07:14:57.750Z,-0.11
2017-12-26T07:15:57.726Z,-0.09
2017-12-26T07:16:57.734Z,-0.06
2017-12-26T07:17:57.769Z,-0.09
2017-12-26T07:18:57.737Z,-0.09
2017-12-26T07:19:57.798Z,-0.11
2017-12-26T07:20:57.891Z,-0.13
2017-12-26T07:21:57.759Z,-0.11
2017-12-26T07:22:58.136Z,-0.14
2017-12-26T07:23:57.858Z,-0.19
2017-12-26T07:24:57.865Z,-0.2
2017-12-26T07:25:57.866Z,-0.23
2017-12-26T07:26:57.674Z,-0.18
2017-12-26T07:27:57.707Z,-0.2
2017-12-26T07:28:57.885Z,-0.2
2017-12-26T07:29:57.787Z,-0.23
2017-12-26T07:30:57.816Z,-0.24
2017-12-26T07:31:57.704Z,-0.24
2017-12-26T07:32:57.694Z,-0.24
2017-12-26T07:33:57.702Z,-0.31
2017-12-26T07:34:57.800Z,-0.26
2017-12-26T07:35:57.755Z,-0.31
2017-12-26T07:36:57.851Z,-0.27
2017-12-26T07:37:57.811Z,-0.21
2017-12-26T07:38:57.724Z,-0.23
2017-12-26T07:39:57.742Z,-0.2
2017-12-26T07:40:57.754Z,-0.26
2017-12-26T07:41:57.786Z,-0.21
2017-12-26T07:42:57.816Z,-0.2
2017-12-26T07:43:57.719Z,-0.16
2017-12-26T07:44:57.683Z,-0.18
2017-12-26T07:45:57.868Z,-0.18
2017-12-26T07:46:57.883Z,-0.15
2017-12-26T07:49:58.205Z,-0.1
2017-12-26T07:50:57.922Z,-0.09
2017-12-26T07:51:57.783Z,-0.02
2017-12-26T07:52:58.262Z,0.02
2017-12-26T07:53:57.910Z,0.04
2017-12-26T07:54:57.928Z,0
2017-12-26T07:55:58.044Z,0.02
2017-12-26T07:56:58.033Z,0.05
2017-12-26T07:57:58.079Z,0.11
2017-12-26T07:58:57.765Z,0.14
2017-12-26T07:59:57.936Z,0.14
2017-12-26T08:00:57.875Z,0.17
2017-12-26T08:01:57.996Z,0.12
2017-12-26T08:02:57.858Z,0.14
2017-12-26T08:03:57.961Z,0.16
2017-12-26T08:04:57.944Z,0.17
2017-12-26T08:05:57.650Z,0.17
2017-12-26T08:06:57.823Z,0.11
2017-12-26T08:07:58.048Z,0.15
2017-12-26T08:08:57.994Z,0.15
2017-12-26T08:09:57.805Z,0.15
2017-12-26T08:10:58.028Z,0.16
2017-12-26T08:11:58.039Z,0.16
2017-12-26T08:12:58.119Z,0.18
2017-12-26T08:13:57.977Z,0.17
2017-12-26T08:14:57.901Z,0.2
2017-12-26T08:15:57.858Z,0.22
2017-12-26T08:16:58.291Z,0.25
2017-12-26T08:17:57.809Z,0.29
2017-12-26T08:18:57.895Z,0.27
2017-12-26T08:19:57.810Z,0.29
2017-12-26T08:20:58.025Z,0.35
2017-12-26T08:21:57.861Z,0.38
2017-12-26T08:22:57.911Z,0.41
2017-12-26T08:23:57.859Z,0.45
2017-12-26T08:24:57.935Z,0.48
2017-12-26T08:25:57.917Z,0.5
2017-12-26T08:26:57.859Z,0.52
2017-12-26T08:27:57.832Z,0.57
2017-12-26T08:28:57.928Z,0.62
2017-12-26T08:29:57.814Z,0.64
2017-12-26T08:30:57.959Z,0.67
2017-12-26T08:31:57.930Z,0.71
2017-12-26T08:32:57.924Z,0.75
2017-12-26T08:33:57.860Z,0.8
2017-12-26T08:34:57.944Z,0.83
2017-12-26T08:35:58.193Z,0.88
2017-12-26T08:36:57.861Z,0.85
2017-12-26T08:37:58.087Z,0.81
2017-12-26T08:38:57.979Z,0.88
2017-12-26T08:39:57.986Z,0.91
2017-12-26T08:40:58.008Z,0.85
2017-12-26T08:41:58.094Z,0.84
2017-12-26T08:42:57.935Z,0.92
2017-12-26T08:43:57.925Z,0.93
2017-12-26T08:44:57.814Z,0.92
2017-12-26T08:45:57.950Z,0.94
2017-12-26T08:46:57.916Z,0.9
2017-12-26T08:47:58.054Z,0.96
2017-12-26T08:48:57.982Z,0.98
2017-12-26T08:49:57.848Z,1.01
2017-12-26T08:50:57.878Z,1.06
2017-12-26T08:51:57.937Z,1.04
2017-12-26T08:52:58.007Z,1.13
2017-12-26T08:53:58.006Z,1.11
2017-12-26T08:54:57.935Z,1.06
2017-12-26T08:55:58.110Z,1.12
2017-12-26T08:56:57.870Z,1.17
2017-12-26T08:57:58.020Z,1.15
2017-12-26T08:58:57.997Z,1.22
2017-12-26T08:59:58.058Z,1.21
2017-12-26T09:00:57.922Z,1.2
2017-12-26T09:01:57.958Z,1.18
2017-12-26T09:02:57.732Z,1.2
2017-12-26T09:03:57.968Z,1.22
2017-12-26T09:04:57.982Z,1.19
2017-12-26T09:05:57.983Z,1.22
2017-12-26T09:06:57.910Z,1.2
2017-12-26T09:07:57.960Z,1.23
2017-12-26T09:08:58.010Z,1.26
2017-12-26T09:09:57.987Z,1.27
2017-12-26T09:10:57.943Z,1.21
2017-12-26T09:11:57.950Z,1.24
2017-12-26T09:12:57.995Z,1.29
2017-12-26T09:13:58.074Z,1.29
2017-12-26T09:14:57.952Z,1.29
2017-12-26T09:15:57.955Z,1.3
2017-12-26T09:16:57.973Z,1.32
2017-12-26T09:17:57.985Z,1.32
2017-12-26T09:18:58.052Z,1.37
2017-12-26T09:19:58.022Z,1.37
2017-12-26T09:20:58.077Z,1.33
2017-12-26T09:21:57.975Z,1.37
2017-12-26T09:22:57.983Z,1.39
2017-12-26T09:23:58.118Z,1.36
2017-12-26T09:24:58.142Z,1.38
2017-12-26T09:28:06.542Z,1.42
2017-12-26T09:28:58.033Z,1.44
2017-12-26T09:29:58.089Z,1.42
2017-12-26T09:30:57.884Z,1.46
2017-12-26T09:31:57.980Z,1.5
2017-12-26T09:32:58.006Z,1.52
2017-12-26T09:33:58.070Z,1.52
2017-12-26T09:34:58.052Z,1.57
2017-12-26T09:35:58.041Z,1.56
2017-12-26T09:36:57.999Z,1.55
2017-12-26T09:37:58.104Z,1.55
2017-12-26T09:38:57.892Z,1.59
2017-12-26T09:39:57.986Z,1.59
2017-12-26T09:40:57.901Z,1.58
2017-12-26T09:44:04.547Z,1.62
2017-12-26T09:44:58.159Z,1.66
2017-12-26T09:45:58.075Z,1.64
2017-12-26T09:46:57.924Z,1.67
2017-12-26T09:47:58.179Z,1.7
2017-12-26T09:48:58.210Z,1.69
2017-12-26T09:49:58.094Z,1.73
2017-12-26T09:50:58.553Z,1.77
2017-12-26T09:51:58.151Z,1.81
2017-12-26T09:52:58.107Z,1.81
2017-12-26T09:53:58.104Z,1.9
2017-12-26T09:54:58.009Z,1.87
2017-12-26T09:55:58.096Z,1.87
2017-12-26T09:56:58.107Z,1.88
2017-12-26T09:57:58.133Z,1.89
2017-12-26T09:58:58.097Z,1.9
2017-12-26T09:59:58.282Z,1.91
2017-12-26T10:00:57.971Z,1.91
2017-12-26T10:01:58.167Z,1.96
2017-12-26T10:02:58.199Z,1.95
2017-12-26T10:03:58.158Z,1.92
2017-12-26T10:04:58.167Z,1.95
2017-12-26T10:05:58.200Z,1.98
2017-12-26T10:06:57.930Z,1.93
2017-12-26T10:07:58.119Z,1.99
2017-12-26T10:08:58.050Z,2.02
2017-12-26T10:09:58.005Z,1.95
2017-12-26T10:10:58.033Z,1.92
2017-12-26T10:11:58.022Z,1.95
2017-12-26T10:12:58.312Z,1.96
2017-12-26T10:13:58.037Z,2.02
2017-12-26T10:14:58.145Z,1.97
2017-12-26T10:15:57.941Z,2.1
2017-12-26T10:16:58.071Z,2.15
2017-12-26T10:17:58.520Z,2.06
2017-12-26T10:18:57.969Z,2.21
2017-12-26T10:19:58.115Z,2.23
2017-12-26T10:20:57.954Z,2.19
2017-12-26T10:21:58.240Z,2.24
2017-12-26T10:22:58.121Z,2.2
2017-12-26T10:23:58.150Z,2.22
2017-12-26T10:24:58.039Z,2.2
2017-12-26T10:25:58.203Z,2.31
2017-12-26T10:26:58.206Z,2.32
2017-12-26T10:27:58.204Z,2.4
2017-12-26T10:28:58.127Z,2.31
2017-12-26T10:29:58.693Z,2.37
2017-12-26T10:30:58.352Z,2.39
2017-12-26T10:31:58.382Z,2.38
2017-12-26T10:32:58.292Z,2.35
2017-12-26T10:33:58.117Z,2.42
2017-12-26T10:34:58.100Z,2.5
2017-12-26T10:35:58.305Z,2.44
2017-12-26T10:36:58.116Z,2.43
2017-12-26T10:37:58.216Z,2.47
2017-12-26T10:38:58.170Z,2.49
2017-12-26T10:39:58.181Z,2.55
2017-12-26T10:40:58.711Z,2.55
2017-12-26T10:41:58.478Z,2.6
2017-12-26T10:42:58.379Z,2.72
2017-12-26T10:43:58.330Z,2.62
2017-12-26T10:44:58.198Z,2.59
2017-12-26T10:45:58.332Z,2.71
2017-12-26T10:46:58.369Z,2.78
2017-12-26T10:48:00.209Z,2.75
2017-12-26T10:48:58.246Z,3.5
2017-12-26T10:49:58.605Z,3.15
2017-12-26T10:50:58.364Z,3.18
2017-12-26T10:51:58.480Z,3.12
2017-12-26T10:52:58.435Z,3.23
2017-12-26T10:53:58.207Z,3.19
2017-12-26T10:54:58.491Z,3.24
2017-12-26T10:55:58.323Z,3.28
2017-12-26T10:56:58.250Z,3.25
2017-12-26T10:57:58.158Z,3.23
2017-12-26T10:58:58.453Z,3.37
2017-12-26T10:59:58.495Z,3.35
2017-12-26T11:00:58.670Z,3.31
2017-12-26T11:01:58.335Z,3.26
2017-12-26T11:02:58.258Z,3.4
2017-12-26T11:03:58.160Z,3.42
2017-12-26T11:04:58.236Z,3.38
2017-12-26T11:05:58.307Z,3.44
2017-12-26T11:06:58.207Z,3.49
2017-12-26T11:07:58.478Z,3.53
2017-12-26T11:08:58.284Z,3.56
2017-12-26T11:09:58.654Z,3.55
2017-12-26T11:10:58.469Z,3.61
2017-12-26T11:11:59.343Z,3.6
2017-12-26T11:12:58.210Z,3.64
2017-12-26T11:13:58.238Z,3.65
2017-12-26T11:14:58.546Z,3.67
2017-12-26T11:15:58.248Z,3.71
2017-12-26T11:16:58.300Z,3.72
2017-12-26T11:17:58.252Z,3.76
2017-12-26T11:18:58.290Z,3.85
2017-12-26T11:19:58.461Z,3.82
2017-12-26T11:20:58.292Z,3.8
2017-12-26T11:21:58.334Z,3.7
2017-12-26T11:22:58.351Z,3.85
2017-12-26T11:23:58.223Z,3.86
2017-12-26T11:24:58.441Z,3.9
2017-12-26T11:25:58.413Z,3.88
2017-12-26T11:26:59.070Z,3.94
2017-12-26T11:27:58.988Z,3.93
2017-12-26T11:28:58.056Z,4.03
2017-12-26T11:29:59.222Z,4.08
2017-12-26T11:30:58.549Z,4.04
2017-12-26T11:31:58.422Z,4
2017-12-26T11:32:58.326Z,4.02
2017-12-26T11:33:58.330Z,4.09
2017-12-26T11:34:58.199Z,4.1
2017-12-26T11:35:58.354Z,4.1
2017-12-26T11:36:58.129Z,4.11
2017-12-26T11:38:10.416Z,4.02
2017-12-26T11:38:58.111Z,4.05
2017-12-26T11:39:58.279Z,4.11
2017-12-26T11:40:58.367Z,4
2017-12-26T11:41:58.289Z,4.03
2017-12-26T11:42:58.259Z,3.99
2017-12-26T11:43:58.267Z,4.05
2017-12-26T11:44:58.387Z,4.04
2017-12-26T11:45:58.287Z,4.01
2017-12-26T11:46:58.402Z,4.02
2017-12-26T11:47:58.217Z,4.06
2017-12-26T11:48:58.197Z,4.1
2017-12-26T11:49:58.201Z,4.08
2017-12-26T11:50:58.354Z,4.06
2017-12-26T11:51:58.231Z,4.06
2017-12-26T11:52:58.195Z,4.08
2017-12-26T11:53:58.246Z,4.09
2017-12-26T11:54:58.184Z,4.12
2017-12-26T11:55:59.576Z,4.13
2017-12-26T11:56:58.723Z,4.17
2017-12-26T11:57:58.339Z,4.15
2017-12-26T11:58:59.639Z,4.16
2017-12-26T11:59:58.276Z,4.18
2017-12-26T12:00:58.226Z,4.14
2017-12-26T12:01:58.199Z,4.16
2017-12-26T12:02:58.134Z,4.14
2017-12-26T12:04:00.072Z,4.14
2017-12-26T12:04:58.381Z,4.11
2017-12-26T12:05:59.023Z,3.97
2017-12-26T12:06:58.239Z,4.04
2017-12-26T12:07:58.429Z,4.06
2017-12-26T12:08:59.270Z,4.1
2017-12-26T12:09:58.312Z,4.09
2017-12-26T12:10:58.694Z,4.06
2017-12-26T12:11:58.238Z,4.09
2017-12-26T12:13:07.571Z,4.07
2017-12-26T12:13:58.215Z,4.06
2017-12-26T12:14:58.298Z,4.04
2017-12-26T12:15:58.578Z,4.07
2017-12-26T12:16:58.172Z,4.1
2017-12-26T12:17:58.733Z,4.08
2017-12-26T12:18:58.426Z,4.05
2017-12-26T12:19:58.304Z,4.07
2017-12-26T12:20:59.166Z,4.1
2017-12-26T12:21:58.172Z,4.07
2017-12-26T12:22:58.189Z,4.09
2017-12-26T12:23:58.225Z,4.14
2017-12-26T12:24:58.104Z,4.15
2017-12-26T12:25:59.084Z,4.1
2017-12-26T12:27:02.890Z,4.1
2017-12-26T12:29:05.027Z,4.09
2017-12-26T12:30:05.869Z,4.06
2017-12-26T12:31:00.310Z,4.05
2017-12-26T12:31:58.271Z,4.07
2017-12-26T12:33:05.290Z,4.12
2017-12-26T12:34:01.871Z,4.09
2017-12-26T12:35:03.224Z,4.11
2017-12-26T12:36:00.603Z,4.07
2017-12-26T12:37:10.937Z,4.1
2017-12-26T12:39:16.731Z,4.03
2017-12-26T12:40:07.108Z,4.04
2017-12-26T12:44:11.699Z,4.01
2017-12-26T12:46:13.589Z,4.05
2017-12-26T12:47:19.280Z,4.04
2017-12-26T12:47:58.249Z,4.08
2017-12-26T12:48:58.373Z,4.05
2017-12-26T12:49:58.190Z,4.04
2017-12-26T12:50:58.396Z,3.93
2017-12-26T12:51:58.276Z,4.01
2017-12-26T12:52:58.447Z,3.93
2017-12-26T12:53:59.083Z,3.96
2017-12-26T12:54:58.156Z,3.91
2017-12-26T12:55:58.357Z,3.94
2017-12-26T12:56:58.340Z,3.94
2017-12-26T12:57:58.178Z,3.89
2017-12-26T12:58:58.182Z,3.89
2017-12-26T12:59:58.478Z,3.81
2017-12-26T13:00:58.357Z,3.71
2017-12-26T13:01:58.189Z,3.61
2017-12-26T13:02:58.311Z,3.73
2017-12-26T13:03:58.293Z,3.74
2017-12-26T13:04:58.269Z,3.69
2017-12-26T13:05:58.232Z,3.73
2017-12-26T13:06:58.284Z,3.69
2017-12-26T13:07:58.293Z,3.56
2017-12-26T13:08:58.418Z,3.38
2017-12-26T13:09:58.319Z,3.46
2017-12-26T13:10:58.439Z,3.35
2017-12-26T13:11:58.820Z,3.44
2017-12-26T13:12:58.970Z,3.58
2017-12-26T13:13:58.263Z,3.55
2017-12-26T13:14:58.217Z,3.62
2017-12-26T13:15:58.430Z,3.53
2017-12-26T13:16:58.346Z,3.56
2017-12-26T13:17:58.135Z,3.64
2017-12-26T13:18:58.229Z,3.6
2017-12-26T13:19:58.561Z,3.61
2017-12-26T13:20:58.417Z,3.66